sensor_id;sensor_type;location;lat;lon;timestamp;pressure;altitude;pressure_sealevel;temperature;humidity
64189;BME280;50493;50.970;10.082;2023-06-22T00:00:19;99492.44;;;24.75;46.00
64189;BME280;50493;50.970;10.082;2023-06-22T00:02:44;99483.00;;;24.82;45.89
64189;BME280;50493;50.970;10.082;2023-06-22T00:05:10;99482.97;;;24.71;45.89
64189;BME280;50493;50.970;10.082;2023-06-22T00:07:36;99491.25;;;24.56;46.13
64189;BME280;50493;50.970;10.082;2023-06-22T00:10:02;99489.78;;;24.52;46.02
64189;BME280;50493;50.970;10.082;2023-06-22T00:12:27;99500.69;;;24.38;46.63
64189;BME280;50493;50.970;10.082;2023-06-22T00:14:53;99508.25;;;24.44;46.34
64189;BME280;50493;50.970;10.082;2023-06-22T00:17:18;99512.13;;;24.51;46.12
64189;BME280;50493;50.970;10.082;2023-06-22T00:19:46;99496.81;;;24.53;45.74
64189;BME280;50493;50.970;10.082;2023-06-22T00:22:12;99501.91;;;24.45;46.12
64189;BME280;50493;50.970;10.082;2023-06-22T00:24:38;99502.13;;;24.31;46.16
64189;BME280;50493;50.970;10.082;2023-06-22T00:27:04;99504.28;;;24.26;46.32
64189;BME280;50493;50.970;10.082;2023-06-22T00:29:31;99498.94;;;24.26;46.19
64189;BME280;50493;50.970;10.082;2023-06-22T00:31:56;99506.00;;;24.27;46.05
64189;BME280;50493;50.970;10.082;2023-06-22T00:34:21;99494.06;;;24.19;45.96
64189;BME280;50493;50.970;10.082;2023-06-22T00:36:46;99492.09;;;24.10;46.34
64189;BME280;50493;50.970;10.082;2023-06-22T00:39:12;99489.56;;;24.09;46.46
64189;BME280;50493;50.970;10.082;2023-06-22T00:41:39;99487.97;;;24.06;46.59
64189;BME280;50493;50.970;10.082;2023-06-22T00:44:04;99489.69;;;24.07;46.73
64189;BME280;50493;50.970;10.082;2023-06-22T00:46:29;99501.44;;;24.04;46.38
64189;BME280;50493;50.970;10.082;2023-06-22T00:48:55;99495.72;;;23.98;46.63
64189;BME280;50493;50.970;10.082;2023-06-22T00:51:22;99490.63;;;23.95;46.51
64189;BME280;50493;50.970;10.082;2023-06-22T00:53:49;99491.69;;;23.92;46.43
64189;BME280;50493;50.970;10.082;2023-06-22T00:56:14;99480.63;;;23.85;46.69
64189;BME280;50493;50.970;10.082;2023-06-22T00:58:41;99473.00;;;23.81;47.20
64189;BME280;50493;50.970;10.082;2023-06-22T01:01:07;99467.03;;;23.77;47.05
64189;BME280;50493;50.970;10.082;2023-06-22T01:03:32;99474.19;;;23.77;46.66
64189;BME280;50493;50.970;10.082;2023-06-22T01:06:06;99469.19;;;23.72;47.37
64189;BME280;50493;50.970;10.082;2023-06-22T01:08:39;99459.41;;;23.60;47.19
64189;BME280;50493;50.970;10.082;2023-06-22T01:11:09;99452.72;;;23.54;47.32
64189;BME280;50493;50.970;10.082;2023-06-22T01:13:40;99442.19;;;23.52;47.57
64189;BME280;50493;50.970;10.082;2023-06-22T01:16:12;99437.28;;;23.46;47.72
64189;BME280;50493;50.970;10.082;2023-06-22T01:18:41;99436.06;;;23.39;47.58
64189;BME280;50493;50.970;10.082;2023-06-22T01:21:10;99427.78;;;23.31;47.80
64189;BME280;50493;50.970;10.082;2023-06-22T01:23:50;99409.56;;;23.25;47.90
64189;BME280;50493;50.970;10.082;2023-06-22T01:26:18;99395.22;;;23.14;47.79
64189;BME280;50493;50.970;10.082;2023-06-22T01:28:47;99381.38;;;23.09;47.61
64189;BME280;50493;50.970;10.082;2023-06-22T01:31:16;99372.88;;;23.04;48.18
64189;BME280;50493;50.970;10.082;2023-06-22T01:33:44;99368.28;;;23.06;48.25
64189;BME280;50493;50.970;10.082;2023-06-22T01:36:11;99372.06;;;23.02;47.68
64189;BME280;50493;50.970;10.082;2023-06-22T01:38:38;99365.22;;;22.86;48.21
64189;BME280;50493;50.970;10.082;2023-06-22T01:41:04;99370.44;;;22.88;48.62
64189;BME280;50493;50.970;10.082;2023-06-22T01:43:30;99364.78;;;22.93;47.84
64189;BME280;50493;50.970;10.082;2023-06-22T01:45:59;99365.06;;;23.01;48.19
64189;BME280;50493;50.970;10.082;2023-06-22T01:48:25;99368.13;;;22.83;48.31
64189;BME280;50493;50.970;10.082;2023-06-22T01:50:51;99378.19;;;23.04;47.63
64189;BME280;50493;50.970;10.082;2023-06-22T01:53:17;99403.94;;;23.16;47.33
64189;BME280;50493;50.970;10.082;2023-06-22T01:55:42;99410.16;;;23.17;47.71
64189;BME280;50493;50.970;10.082;2023-06-22T01:58:07;99415.72;;;23.49;47.82
64189;BME280;50493;50.970;10.082;2023-06-22T02:00:37;99438.28;;;23.21;47.37
64189;BME280;50493;50.970;10.082;2023-06-22T02:03:08;99437.13;;;22.75;47.87
64189;BME280;50493;50.970;10.082;2023-06-22T02:05:37;99455.97;;;22.72;48.32
64189;BME280;50493;50.970;10.082;2023-06-22T02:08:08;99468.38;;;22.47;49.10
64189;BME280;50493;50.970;10.082;2023-06-22T02:10:35;99480.63;;;22.50;48.97
64189;BME280;50493;50.970;10.082;2023-06-22T02:13:04;99494.00;;;22.22;50.17
64189;BME280;50493;50.970;10.082;2023-06-22T02:15:30;99504.34;;;22.27;49.64
64189;BME280;50493;50.970;10.082;2023-06-22T02:17:55;99512.22;;;22.29;49.24
64189;BME280;50493;50.970;10.082;2023-06-22T02:20:23;99524.25;;;22.21;49.62
64189;BME280;50493;50.970;10.082;2023-06-22T02:22:48;99526.25;;;21.65;51.77
64189;BME280;50493;50.970;10.082;2023-06-22T02:25:14;99528.47;;;21.44;52.04
64189;BME280;50493;50.970;10.082;2023-06-22T02:27:39;99529.91;;;21.35;52.79
64189;BME280;50493;50.970;10.082;2023-06-22T02:30:07;99527.47;;;21.17;55.30
64189;BME280;50493;50.970;10.082;2023-06-22T02:32:32;99537.53;;;21.27;52.68
64189;BME280;50493;50.970;10.082;2023-06-22T02:34:59;99539.78;;;21.75;51.21
64189;BME280;50493;50.970;10.082;2023-06-22T02:37:26;99543.06;;;21.93;50.67
64189;BME280;50493;50.970;10.082;2023-06-22T02:39:54;99541.22;;;21.93;49.64
64189;BME280;50493;50.970;10.082;2023-06-22T02:42:20;99544.66;;;21.95;49.62
64189;BME280;50493;50.970;10.082;2023-06-22T02:44:46;99551.50;;;22.12;49.44
64189;BME280;50493;50.970;10.082;2023-06-22T02:47:12;99554.28;;;22.24;48.69
64189;BME280;50493;50.970;10.082;2023-06-22T02:49:37;99566.97;;;22.33;48.64
64189;BME280;50493;50.970;10.082;2023-06-22T02:52:03;99560.50;;;22.37;48.41
64189;BME280;50493;50.970;10.082;2023-06-22T02:54:30;99573.50;;;22.54;47.91
64189;BME280;50493;50.970;10.082;2023-06-22T02:56:55;99571.19;;;22.50;47.78
64189;BME280;50493;50.970;10.082;2023-06-22T02:59:21;99570.34;;;22.49;47.97
64189;BME280;50493;50.970;10.082;2023-06-22T03:01:49;99579.69;;;22.42;48.31
64189;BME280;50493;50.970;10.082;2023-06-22T03:04:15;99582.47;;;22.41;47.82
64189;BME280;50493;50.970;10.082;2023-06-22T03:06:40;99581.28;;;22.45;47.84
64189;BME280;50493;50.970;10.082;2023-06-22T03:09:06;99578.63;;;22.45;47.94
64189;BME280;50493;50.970;10.082;2023-06-22T03:11:34;99568.19;;;22.42;51.88
64189;BME280;50493;50.970;10.082;2023-06-22T03:13:59;99537.59;;;20.98;54.26
64189;BME280;50493;50.970;10.082;2023-06-22T03:16:25;99504.84;;;21.39;52.47
64189;BME280;50493;50.970;10.082;2023-06-22T03:18:50;99516.00;;;21.59;51.77
64189;BME280;50493;50.970;10.082;2023-06-22T03:21:16;99526.63;;;21.59;50.45
64189;BME280;50493;50.970;10.082;2023-06-22T03:23:42;99513.09;;;21.76;50.02
64189;BME280;50493;50.970;10.082;2023-06-22T03:26:08;99505.25;;;21.87;50.06
64189;BME280;50493;50.970;10.082;2023-06-22T03:28:35;99502.78;;;21.84;51.96
64189;BME280;50493;50.970;10.082;2023-06-22T03:31:00;99491.16;;;21.73;52.34
64189;BME280;50493;50.970;10.082;2023-06-22T03:33:25;99478.38;;;21.50;52.06
64189;BME280;50493;50.970;10.082;2023-06-22T03:35:51;99465.41;;;21.46;52.27
64189;BME280;50493;50.970;10.082;2023-06-22T03:38:16;99456.16;;;21.51;51.88
64189;BME280;50493;50.970;10.082;2023-06-22T03:40:42;99449.34;;;21.47;52.02
64189;BME280;50493;50.970;10.082;2023-06-22T03:43:07;99453.16;;;21.43;51.98
64189;BME280;50493;50.970;10.082;2023-06-22T03:45:34;99449.69;;;21.55;51.89
64189;BME280;50493;50.970;10.082;2023-06-22T03:48:00;99449.56;;;21.57;51.28
64189;BME280;50493;50.970;10.082;2023-06-22T03:50:25;99454.31;;;21.66;51.75
64189;BME280;50493;50.970;10.082;2023-06-22T03:52:50;99455.38;;;21.64;55.68
64189;BME280;50493;50.970;10.082;2023-06-22T03:55:19;99441.69;;;21.55;52.18
64189;BME280;50493;50.970;10.082;2023-06-22T03:57:44;99434.09;;;21.64;51.16
64189;BME280;50493;50.970;10.082;2023-06-22T04:00:10;99433.28;;;21.76;53.35
64189;BME280;50493;50.970;10.082;2023-06-22T04:02:37;99436.34;;;21.83;51.32
64189;BME280;50493;50.970;10.082;2023-06-22T04:05:03;99437.09;;;21.72;50.88
64189;BME280;50493;50.970;10.082;2023-06-22T04:07:29;99430.09;;;21.71;50.69
64189;BME280;50493;50.970;10.082;2023-06-22T04:09:54;99420.16;;;21.73;50.58
64189;BME280;50493;50.970;10.082;2023-06-22T04:12:20;99417.28;;;21.63;50.85
64189;BME280;50493;50.970;10.082;2023-06-22T04:14:45;99410.47;;;21.72;50.52
64189;BME280;50493;50.970;10.082;2023-06-22T04:17:10;99416.22;;;21.66;49.56
64189;BME280;50493;50.970;10.082;2023-06-22T04:19:41;99425.63;;;21.84;49.10
64189;BME280;50493;50.970;10.082;2023-06-22T04:22:06;99438.81;;;21.99;48.83
64189;BME280;50493;50.970;10.082;2023-06-22T04:24:32;99438.09;;;22.22;49.63
64189;BME280;50493;50.970;10.082;2023-06-22T04:26:57;99441.97;;;22.44;48.42
64189;BME280;50493;50.970;10.082;2023-06-22T04:29:23;99449.06;;;22.18;47.44
64189;BME280;50493;50.970;10.082;2023-06-22T04:31:54;99450.78;;;22.06;47.82
64189;BME280;50493;50.970;10.082;2023-06-22T04:34:21;99454.38;;;22.05;47.90
64189;BME280;50493;50.970;10.082;2023-06-22T04:36:47;99448.75;;;21.97;47.95
64189;BME280;50493;50.970;10.082;2023-06-22T04:39:13;99442.03;;;22.30;47.30
64189;BME280;50493;50.970;10.082;2023-06-22T04:41:39;99436.47;;;22.33;47.01
64189;BME280;50493;50.970;10.082;2023-06-22T04:44:09;99425.84;;;22.33;47.60
64189;BME280;50493;50.970;10.082;2023-06-22T04:46:34;99432.69;;;22.37;47.21
64189;BME280;50493;50.970;10.082;2023-06-22T04:49:04;99430.97;;;22.23;47.28
64189;BME280;50493;50.970;10.082;2023-06-22T04:51:31;99438.53;;;22.42;53.44
64189;BME280;50493;50.970;10.082;2023-06-22T04:53:58;99439.25;;;22.57;46.80
64189;BME280;50493;50.970;10.082;2023-06-22T04:56:25;99437.59;;;22.43;46.71
64189;BME280;50493;50.970;10.082;2023-06-22T04:58:53;99429.47;;;22.32;46.98
64189;BME280;50493;50.970;10.082;2023-06-22T05:01:21;99428.19;;;22.12;47.31
64189;BME280;50493;50.970;10.082;2023-06-22T05:03:47;99430.53;;;22.29;46.69
64189;BME280;50493;50.970;10.082;2023-06-22T05:06:13;99432.88;;;22.21;46.93
64189;BME280;50493;50.970;10.082;2023-06-22T05:08:39;99440.47;;;22.40;46.27
64189;BME280;50493;50.970;10.082;2023-06-22T05:11:06;99440.34;;;22.16;46.78
64189;BME280;50493;50.970;10.082;2023-06-22T05:13:32;99432.44;;;22.27;46.77
64189;BME280;50493;50.970;10.082;2023-06-22T05:15:57;99428.34;;;22.36;47.08
64189;BME280;50493;50.970;10.082;2023-06-22T05:18:27;99424.81;;;22.48;52.78
64189;BME280;50493;50.970;10.082;2023-06-22T05:20:52;99426.28;;;22.52;51.88
64189;BME280;50493;50.970;10.082;2023-06-22T05:23:18;99419.06;;;22.42;53.92
64189;BME280;50493;50.970;10.082;2023-06-22T05:25:44;99415.44;;;22.17;54.86
64189;BME280;50493;50.970;10.082;2023-06-22T05:28:10;99420.75;;;21.91;56.29
64189;BME280;50493;50.970;10.082;2023-06-22T05:30:36;99418.28;;;22.39;55.21
64189;BME280;50493;50.970;10.082;2023-06-22T05:33:02;99416.03;;;22.20;55.52
64189;BME280;50493;50.970;10.082;2023-06-22T05:35:27;99419.25;;;22.51;58.15
64189;BME280;50493;50.970;10.082;2023-06-22T05:37:53;99421.66;;;22.67;53.39
64189;BME280;50493;50.970;10.082;2023-06-22T05:40:18;99423.53;;;22.41;55.66
64189;BME280;50493;50.970;10.082;2023-06-22T05:42:43;99422.44;;;22.31;54.52
64189;BME280;50493;50.970;10.082;2023-06-22T05:45:10;99428.41;;;22.47;54.55
64189;BME280;50493;50.970;10.082;2023-06-22T05:47:36;99428.19;;;22.25;54.03
64189;BME280;50493;50.970;10.082;2023-06-22T05:50:01;99426.41;;;22.38;52.66
64189;BME280;50493;50.970;10.082;2023-06-22T05:52:31;99432.91;;;22.34;52.28
64189;BME280;50493;50.970;10.082;2023-06-22T05:54:56;99432.47;;;22.14;52.63
64189;BME280;50493;50.970;10.082;2023-06-22T05:57:22;99443.97;;;22.53;57.38
64189;BME280;50493;50.970;10.082;2023-06-22T05:59:47;99438.78;;;22.76;51.48
64189;BME280;50493;50.970;10.082;2023-06-22T06:02:14;99441.56;;;22.87;50.86
64189;BME280;50493;50.970;10.082;2023-06-22T06:04:39;99430.66;;;22.02;52.51
64189;BME280;50493;50.970;10.082;2023-06-22T06:07:05;99437.78;;;22.53;57.38
64189;BME280;50493;50.970;10.082;2023-06-22T06:09:30;99438.41;;;22.57;50.72
64189;BME280;50493;50.970;10.082;2023-06-22T06:11:55;99440.31;;;22.67;57.01
64189;BME280;50493;50.970;10.082;2023-06-22T06:14:21;99432.25;;;22.43;59.30
64189;BME280;50493;50.970;10.082;2023-06-22T06:16:46;99424.16;;;22.32;51.30
64189;BME280;50493;50.970;10.082;2023-06-22T06:19:13;99425.63;;;22.99;56.86
64189;BME280;50493;50.970;10.082;2023-06-22T06:21:38;99428.88;;;22.41;50.76
64189;BME280;50493;50.970;10.082;2023-06-22T06:24:04;99433.31;;;22.53;49.97
64189;BME280;50493;50.970;10.082;2023-06-22T06:26:29;99428.75;;;22.93;54.77
64189;BME280;50493;50.970;10.082;2023-06-22T06:28:59;99423.69;;;22.77;56.49
64189;BME280;50493;50.970;10.082;2023-06-22T06:31:25;99419.66;;;22.71;49.05
64189;BME280;50493;50.970;10.082;2023-06-22T06:33:52;99420.66;;;22.81;51.73
64189;BME280;50493;50.970;10.082;2023-06-22T06:36:20;99418.75;;;22.33;50.86
64189;BME280;50493;50.970;10.082;2023-06-22T06:38:45;99421.25;;;23.11;58.76
64189;BME280;50493;50.970;10.082;2023-06-22T06:41:12;99415.63;;;23.27;48.40
64189;BME280;50493;50.970;10.082;2023-06-22T06:43:37;99414.16;;;23.47;48.89
64189;BME280;50493;50.970;10.082;2023-06-22T06:46:03;99419.03;;;23.29;48.02
64189;BME280;50493;50.970;10.082;2023-06-22T06:48:28;99421.47;;;22.95;52.40
64189;BME280;50493;50.970;10.082;2023-06-22T06:50:53;99420.16;;;23.13;58.10
64189;BME280;50493;50.970;10.082;2023-06-22T06:53:20;99411.66;;;23.32;51.82
64189;BME280;50493;50.970;10.082;2023-06-22T06:55:45;99408.69;;;23.48;47.67
64189;BME280;50493;50.970;10.082;2023-06-22T06:58:11;99401.06;;;23.79;47.02
64189;BME280;50493;50.970;10.082;2023-06-22T07:00:38;99405.66;;;23.88;47.03
64189;BME280;50493;50.970;10.082;2023-06-22T07:03:03;99396.25;;;24.64;53.16
64189;BME280;50493;50.970;10.082;2023-06-22T07:05:29;99401.78;;;23.46;49.26
64189;BME280;50493;50.970;10.082;2023-06-22T07:07:54;99398.66;;;23.87;48.77
64189;BME280;50493;50.970;10.082;2023-06-22T07:10:21;99396.34;;;23.94;46.92
64189;BME280;50493;50.970;10.082;2023-06-22T07:12:46;99395.28;;;24.08;54.53
64189;BME280;50493;50.970;10.082;2023-06-22T07:15:11;99395.28;;;24.08;54.17
64189;BME280;50493;50.970;10.082;2023-06-22T07:17:38;99386.78;;;24.26;47.49
64189;BME280;50493;50.970;10.082;2023-06-22T07:20:07;99383.94;;;24.84;46.13
64189;BME280;50493;50.970;10.082;2023-06-22T07:22:35;99386.94;;;25.13;52.50
64189;BME280;50493;50.970;10.082;2023-06-22T07:25:00;99387.25;;;24.76;53.66
64189;BME280;50493;50.970;10.082;2023-06-22T07:27:27;99389.16;;;24.85;45.35
64189;BME280;50493;50.970;10.082;2023-06-22T07:29:53;99387.09;;;25.33;51.75
64189;BME280;50493;50.970;10.082;2023-06-22T07:32:20;99382.25;;;24.83;52.57
64189;BME280;50493;50.970;10.082;2023-06-22T07:34:45;99373.75;;;25.54;44.08
64189;BME280;50493;50.970;10.082;2023-06-22T07:37:11;99369.06;;;25.67;50.77
64189;BME280;50493;50.970;10.082;2023-06-22T07:39:36;99365.00;;;25.31;45.66
64189;BME280;50493;50.970;10.082;2023-06-22T07:42:03;99370.06;;;24.90;45.54
64189;BME280;50493;50.970;10.082;2023-06-22T07:44:30;99374.88;;;24.64;54.03
64189;BME280;50493;50.970;10.082;2023-06-22T07:46:55;99373.22;;;25.39;45.22
64189;BME280;50493;50.970;10.082;2023-06-22T07:49:20;99372.78;;;25.97;44.16
64189;BME280;50493;50.970;10.082;2023-06-22T07:51:46;99376.13;;;26.20;43.20
64189;BME280;50493;50.970;10.082;2023-06-22T07:54:11;99373.69;;;26.48;42.61
64189;BME280;50493;50.970;10.082;2023-06-22T07:56:36;99373.91;;;26.76;49.77
64189;BME280;50493;50.970;10.082;2023-06-22T07:59:02;99368.53;;;26.66;42.44
64189;BME280;50493;50.970;10.082;2023-06-22T08:01:30;99370.31;;;26.46;50.26
64189;BME280;50493;50.970;10.082;2023-06-22T08:03:55;99362.97;;;26.99;50.13
64189;BME280;50493;50.970;10.082;2023-06-22T08:06:20;99355.19;;;27.35;41.71
64189;BME280;50493;50.970;10.082;2023-06-22T08:08:46;99344.78;;;27.22;42.75
64189;BME280;50493;50.970;10.082;2023-06-22T08:11:13;99350.91;;;26.83;49.61
64189;BME280;50493;50.970;10.082;2023-06-22T08:13:38;99348.69;;;26.88;47.84
64189;BME280;50493;50.970;10.082;2023-06-22T08:16:04;99344.91;;;27.01;42.46
64189;BME280;50493;50.970;10.082;2023-06-22T08:18:31;99338.25;;;27.05;44.68
64189;BME280;50493;50.970;10.082;2023-06-22T08:20:56;99339.13;;;27.15;45.57
64189;BME280;50493;50.970;10.082;2023-06-22T08:23:22;99339.34;;;27.71;42.32
64189;BME280;50493;50.970;10.082;2023-06-22T08:25:47;99342.06;;;27.41;43.77
64189;BME280;50493;50.970;10.082;2023-06-22T08:28:15;99342.50;;;27.37;45.65
64189;BME280;50493;50.970;10.082;2023-06-22T08:30:40;99339.38;;;27.32;47.59
64189;BME280;50493;50.970;10.082;2023-06-22T08:33:06;99344.63;;;27.23;47.01
64189;BME280;50493;50.970;10.082;2023-06-22T08:35:32;99337.00;;;26.89;43.51
64189;BME280;50493;50.970;10.082;2023-06-22T08:37:58;99336.53;;;26.84;43.01
64189;BME280;50493;50.970;10.082;2023-06-22T08:40:24;99333.94;;;26.53;49.24
64189;BME280;50493;50.970;10.082;2023-06-22T08:42:50;99339.97;;;27.06;47.43
64189;BME280;50493;50.970;10.082;2023-06-22T08:45:15;99332.03;;;27.53;43.80
64189;BME280;50493;50.970;10.082;2023-06-22T08:47:41;99337.69;;;27.40;43.02
64189;BME280;50493;50.970;10.082;2023-06-22T08:50:07;99332.50;;;27.10;46.22
64189;BME280;50493;50.970;10.082;2023-06-22T08:52:35;99320.75;;;27.30;44.53
64189;BME280;50493;50.970;10.082;2023-06-22T08:55:00;99323.44;;;27.60;47.19
64189;BME280;50493;50.970;10.082;2023-06-22T08:57:26;99319.16;;;25.87;50.46
64189;BME280;50493;50.970;10.082;2023-06-22T08:59:51;99313.69;;;27.00;48.42
64189;BME280;50493;50.970;10.082;2023-06-22T09:02:18;99304.91;;;27.66;42.34
64189;BME280;50493;50.970;10.082;2023-06-22T09:04:45;99308.59;;;27.55;41.45
64189;BME280;50493;50.970;10.082;2023-06-22T09:07:10;99299.09;;;28.09;44.88
64189;BME280;50493;50.970;10.082;2023-06-22T09:09:38;99300.25;;;28.06;40.58
64189;BME280;50493;50.970;10.082;2023-06-22T09:12:04;99295.53;;;28.18;47.43
64189;BME280;50493;50.970;10.082;2023-06-22T09:14:29;99294.97;;;28.42;40.39
64189;BME280;50493;50.970;10.082;2023-06-22T09:16:55;99291.72;;;28.11;45.64
64189;BME280;50493;50.970;10.082;2023-06-22T09:19:20;99274.53;;;28.49;41.54
64189;BME280;50493;50.970;10.082;2023-06-22T09:21:45;99273.75;;;28.39;45.09
64189;BME280;50493;50.970;10.082;2023-06-22T09:24:11;99274.69;;;28.48;45.16
64189;BME280;50493;50.970;10.082;2023-06-22T09:26:37;99283.16;;;27.50;46.94
64189;BME280;50493;50.970;10.082;2023-06-22T09:29:04;99281.78;;;26.77;48.65
64189;BME280;50493;50.970;10.082;2023-06-22T09:31:30;99281.50;;;27.19;46.90
64189;BME280;50493;50.970;10.082;2023-06-22T09:33:55;99287.84;;;26.79;47.75
64189;BME280;50493;50.970;10.082;2023-06-22T09:36:21;99276.72;;;27.23;49.39
64189;BME280;50493;50.970;10.082;2023-06-22T09:38:47;99273.13;;;27.42;47.82
64189;BME280;50493;50.970;10.082;2023-06-22T09:41:12;99272.19;;;27.14;46.68
64189;BME280;50493;50.970;10.082;2023-06-22T09:43:39;99256.38;;;28.15;42.21
64189;BME280;50493;50.970;10.082;2023-06-22T09:46:04;99270.06;;;28.68;44.50
64189;BME280;50493;50.970;10.082;2023-06-22T09:48:30;99257.66;;;29.11;42.95
64189;BME280;50493;50.970;10.082;2023-06-22T09:50:55;99254.00;;;29.38;41.32
64189;BME280;50493;50.970;10.082;2023-06-22T09:53:21;99251.88;;;29.50;39.70
64189;BME280;50493;50.970;10.082;2023-06-22T09:55:46;99256.00;;;29.63;41.36
64189;BME280;50493;50.970;10.082;2023-06-22T09:58:12;99257.31;;;29.58;39.31
64189;BME280;50493;50.970;10.082;2023-06-22T10:00:38;99248.25;;;29.94;40.95
64189;BME280;50493;50.970;10.082;2023-06-22T10:03:04;99255.53;;;30.02;40.25
64189;BME280;50493;50.970;10.082;2023-06-22T10:05:29;99245.50;;;29.07;42.55
64189;BME280;50493;50.970;10.082;2023-06-22T10:07:54;99247.19;;;28.36;43.02
64189;BME280;50493;50.970;10.082;2023-06-22T10:10:20;99259.38;;;28.76;43.46
64189;BME280;50493;50.970;10.082;2023-06-22T10:12:46;99257.31;;;29.14;41.50
64189;BME280;50493;50.970;10.082;2023-06-22T10:15:13;99255.34;;;29.69;40.53
64189;BME280;50493;50.970;10.082;2023-06-22T10:17:39;99248.81;;;29.45;40.71
64189;BME280;50493;50.970;10.082;2023-06-22T10:20:06;99252.28;;;29.64;41.15
64189;BME280;50493;50.970;10.082;2023-06-22T10:22:38;99249.84;;;30.13;39.65
64189;BME280;50493;50.970;10.082;2023-06-22T10:25:05;99243.16;;;30.26;40.71
64189;BME280;50493;50.970;10.082;2023-06-22T10:27:30;99235.81;;;30.77;39.19
64189;BME280;50493;50.970;10.082;2023-06-22T10:29:56;99227.34;;;30.39;39.11
64189;BME280;50493;50.970;10.082;2023-06-22T10:32:22;99224.50;;;30.49;39.34
64189;BME280;50493;50.970;10.082;2023-06-22T10:34:48;99221.97;;;29.09;42.21
64189;BME280;50493;50.970;10.082;2023-06-22T10:37:13;99217.84;;;29.76;40.99
64189;BME280;50493;50.970;10.082;2023-06-22T10:39:39;99211.28;;;30.21;39.99
64189;BME280;50493;50.970;10.082;2023-06-22T10:42:05;99213.53;;;30.50;40.63
64189;BME280;50493;50.970;10.082;2023-06-22T10:44:30;99214.88;;;30.38;40.02
64189;BME280;50493;50.970;10.082;2023-06-22T10:46:56;99208.66;;;30.62;39.57
64189;BME280;50493;50.970;10.082;2023-06-22T10:49:21;99207.13;;;30.27;40.36
64189;BME280;50493;50.970;10.082;2023-06-22T10:51:47;99209.75;;;28.70;43.04
64189;BME280;50493;50.970;10.082;2023-06-22T10:54:13;99196.94;;;30.12;40.58
64189;BME280;50493;50.970;10.082;2023-06-22T10:56:38;99193.38;;;30.79;40.33
64189;BME280;50493;50.970;10.082;2023-06-22T10:59:04;99198.25;;;29.31;41.83
64189;BME280;50493;50.970;10.082;2023-06-22T11:01:29;99184.56;;;30.77;39.72
64189;BME280;50493;50.970;10.082;2023-06-22T11:03:56;99183.06;;;29.90;39.46
64189;BME280;50493;50.970;10.082;2023-06-22T11:06:21;99186.28;;;30.78;40.28
64189;BME280;50493;50.970;10.082;2023-06-22T11:08:48;99183.56;;;30.78;39.10
64189;BME280;50493;50.970;10.082;2023-06-22T11:11:13;99182.03;;;30.75;40.05
64189;BME280;50493;50.970;10.082;2023-06-22T11:13:38;99187.94;;;30.63;40.11
64189;BME280;50493;50.970;10.082;2023-06-22T11:16:04;99186.75;;;30.49;40.59
64189;BME280;50493;50.970;10.082;2023-06-22T11:18:30;99176.81;;;30.33;39.66
64189;BME280;50493;50.970;10.082;2023-06-22T11:20:56;99180.69;;;29.87;41.53
64189;BME280;50493;50.970;10.082;2023-06-22T11:23:21;99173.94;;;30.67;38.99
64189;BME280;50493;50.970;10.082;2023-06-22T11:25:48;99174.78;;;30.60;38.14
64189;BME280;50493;50.970;10.082;2023-06-22T11:28:13;99151.34;;;30.68;41.94
64189;BME280;50493;50.970;10.082;2023-06-22T11:30:38;99141.97;;;31.37;40.50
64189;BME280;50493;50.970;10.082;2023-06-22T11:33:04;99146.94;;;31.17;39.96
64189;BME280;50493;50.970;10.082;2023-06-22T11:35:29;99148.22;;;31.77;39.77
64189;BME280;50493;50.970;10.082;2023-06-22T11:37:54;99135.00;;;30.62;40.95
64189;BME280;50493;50.970;10.082;2023-06-22T11:40:21;99126.59;;;30.48;42.45
64189;BME280;50493;50.970;10.082;2023-06-22T11:42:49;99122.00;;;31.54;40.68
64189;BME280;50493;50.970;10.082;2023-06-22T11:45:14;99126.53;;;31.14;38.59
64189;BME280;50493;50.970;10.082;2023-06-22T11:47:40;99108.81;;;31.12;41.54
64189;BME280;50493;50.970;10.082;2023-06-22T11:50:06;99106.31;;;31.81;37.95
64189;BME280;50493;50.970;10.082;2023-06-22T11:52:33;99103.31;;;30.47;38.73
64189;BME280;50493;50.970;10.082;2023-06-22T11:54:58;99097.94;;;30.31;42.89
64189;BME280;50493;50.970;10.082;2023-06-22T11:57:24;99091.16;;;31.72;37.24
64189;BME280;50493;50.970;10.082;2023-06-22T11:59:51;99089.47;;;30.17;43.97
64189;BME280;50493;50.970;10.082;2023-06-22T12:02:16;99093.88;;;30.18;39.28
64189;BME280;50493;50.970;10.082;2023-06-22T12:04:42;99082.94;;;30.78;38.33
64189;BME280;50493;50.970;10.082;2023-06-22T12:07:07;99068.25;;;30.80;38.76
64189;BME280;50493;50.970;10.082;2023-06-22T12:09:32;99067.63;;;31.57;41.49
64189;BME280;50493;50.970;10.082;2023-06-22T12:11:58;99062.50;;;31.71;37.38
64189;BME280;50493;50.970;10.082;2023-06-22T12:14:23;99062.75;;;31.13;37.10
64189;BME280;50493;50.970;10.082;2023-06-22T12:16:50;99061.75;;;31.54;40.87
64189;BME280;50493;50.970;10.082;2023-06-22T12:19:15;99053.34;;;31.72;39.71
64189;BME280;50493;50.970;10.082;2023-06-22T12:21:40;99055.03;;;31.73;39.89
64189;BME280;50493;50.970;10.082;2023-06-22T12:24:06;99051.72;;;30.67;39.74
64189;BME280;50493;50.970;10.082;2023-06-22T12:26:31;99053.09;;;30.54;42.70
64189;BME280;50493;50.970;10.082;2023-06-22T12:28:56;99042.59;;;30.76;38.52
64189;BME280;50493;50.970;10.082;2023-06-22T12:31:22;99047.22;;;30.34;38.59
64189;BME280;50493;50.970;10.082;2023-06-22T12:33:49;99029.81;;;31.18;43.10
64189;BME280;50493;50.970;10.082;2023-06-22T12:36:14;99037.75;;;31.19;37.12
64189;BME280;50493;50.970;10.082;2023-06-22T12:38:41;99033.81;;;30.90;37.61
64189;BME280;50493;50.970;10.082;2023-06-22T12:41:06;99034.56;;;30.02;39.43
64189;BME280;50493;50.970;10.082;2023-06-22T12:43:32;99016.16;;;30.63;37.05